Time;durP1;ratioP1;P1;durP2;ratioP2;P2;SDS_P1;SDS_P2;PMS_P1;PMS_P2;Temp;Humidity;BMP_temperature;BMP_pressure;BME280_temperature;BME280_humidity;BME280_pressure;Samples;Min_cycle;Max_cycle;Signal;HPM_P1;HPM_P2
2023/01/31 00:00:45;;;;;;;8.80;5.63;;;;;;;;;;5045428;28;20068;-45
2023/01/31 00:03:11;;;;;;;10.05;5.80;;;;;;;;;;5045960;28;20512;-46
2023/01/31 00:05:37;;;;;;;9.98;6.38;;;;;;;;;;5046189;28;20029;-46
2023/01/31 00:08:04;;;;;;;9.10;5.85;;;;;;;;;;5045839;28;20407;-46
2023/01/31 00:10:30;;;;;;;9.25;6.43;;;;;;;;;;5046267;28;20048;-45
2023/01/31 00:12:56;;;;;;;9.43;5.70;;;;;;;;;;5045491;28;20025;-45
2023/01/31 00:15:24;;;;;;;9.23;5.68;;;;;;;;;;5044943;28;20047;-46
2023/01/31 00:17:50;;;;;;;10.88;6.95;;;;;;;;;;5046496;28;20060;-46
2023/01/31 00:20:17;;;;;;;11.20;7.25;;;;;;;;;;5046286;28;20052;-47
2023/01/31 00:22:43;;;;;;;10.65;7.10;;;;;;;;;;5045863;28;20104;-45
2023/01/31 00:25:09;;;;;;;12.60;7.63;;;;;;;;;;5045444;28;20119;-46
2023/01/31 00:27:35;;;;;;;11.75;7.13;;;;;;;;;;5045648;28;20029;-47
2023/01/31 00:30:02;;;;;;;13.45;7.85;;;;;;;;;;5045258;28;20025;-45
2023/01/31 00:32:28;;;;;;;12.60;8.40;;;;;;;;;;5045941;28;20496;-47
2023/01/31 00:34:54;;;;;;;14.70;8.05;;;;;;;;;;5044265;28;20071;-48
2023/01/31 00:37:21;;;;;;;13.55;7.78;;;;;;;;;;5045632;28;20029;-46
2023/01/31 00:39:47;;;;;;;12.93;8.48;;;;;;;;;;5047068;28;20450;-46
2023/01/31 00:42:13;;;;;;;13.35;7.85;;;;;;;;;;5046567;28;20075;-47
2023/01/31 00:44:39;;;;;;;11.98;7.45;;;;;;;;;;5046744;28;20059;-46
2023/01/31 00:47:05;;;;;;;10.23;6.43;;;;;;;;;;5046565;28;20059;-47
2023/01/31 00:49:31;;;;;;;14.30;8.10;;;;;;;;;;5046464;28;20025;-47
2023/01/31 00:51:57;;;;;;;8.95;6.28;;;;;;;;;;5046338;28;20408;-47
2023/01/31 00:54:24;;;;;;;10.40;6.50;;;;;;;;;;5046297;28;20111;-47
2023/01/31 00:56:50;;;;;;;10.60;6.82;;;;;;;;;;5046860;28;20025;-46
2023/01/31 00:59:16;;;;;;;11.13;6.82;;;;;;;;;;5046950;28;20040;-47
2023/01/31 01:01:42;;;;;;;12.32;7.78;;;;;;;;;;5046185;28;20052;-46
2023/01/31 01:04:08;;;;;;;9.25;6.03;;;;;;;;;;5046087;28;20025;-46
2023/01/31 06:12:39;;;;;;;6.20;3.60;;;;;;;;;;5041078;28;20035;-49
2023/01/31 06:15:05;;;;;;;6.93;4.38;;;;;;;;;;5046369;28;20593;-46
2023/01/31 06:17:32;;;;;;;6.60;3.60;;;;;;;;;;5046827;28;20171;-47
2023/01/31 06:19:58;;;;;;;7.18;3.90;;;;;;;;;;5046392;28;20052;-48
2023/01/31 06:22:24;;;;;;;6.72;4.07;;;;;;;;;;5046723;28;20163;-47
2023/01/31 06:24:50;;;;;;;6.80;3.60;;;;;;;;;;5046986;28;20532;-49
2023/01/31 06:27:16;;;;;;;7.45;3.75;;;;;;;;;;5046577;28;20029;-46
2023/01/31 06:29:42;;;;;;;7.13;4.10;;;;;;;;;;5047029;28;20029;-48
2023/01/31 06:32:08;;;;;;;5.63;3.33;;;;;;;;;;5046382;28;20107;-45
2023/01/31 06:34:34;;;;;;;7.30;4.13;;;;;;;;;;5046481;28;20090;-47
2023/01/31 06:37:00;;;;;;;5.80;3.67;;;;;;;;;;5046822;28;20032;-49
2023/01/31 06:39:26;;;;;;;7.20;4.00;;;;;;;;;;5046507;28;20524;-46
2023/01/31 06:41:52;;;;;;;6.40;3.80;;;;;;;;;;5046502;28;20025;-46
2023/01/31 06:44:18;;;;;;;7.30;3.70;;;;;;;;;;5046554;28;20071;-46
2023/01/31 06:46:44;;;;;;;7.63;4.28;;;;;;;;;;5042539;28;20032;-48
2023/01/31 06:49:10;;;;;;;7.63;4.05;;;;;;;;;;5046511;28;20040;-47
2023/01/31 06:51:36;;;;;;;5.88;3.60;;;;;;;;;;5046562;28;20032;-50
2023/01/31 06:54:02;;;;;;;6.50;4.05;;;;;;;;;;5046759;28;20035;-47
2023/01/31 06:56:28;;;;;;;8.18;4.38;;;;;;;;;;5046779;28;20108;-46
2023/01/31 06:58:54;;;;;;;5.35;3.33;;;;;;;;;;5058352;28;20178;-47
2023/01/31 07:01:23;;;;;;;6.68;3.72;;;;;;;;;;5047869;28;20611;-46
2023/01/31 07:03:49;;;;;;;6.32;3.83;;;;;;;;;;5047935;28;20465;-46
2023/01/31 07:06:17;;;;;;;6.40;3.90;;;;;;;;;;5051088;28;20522;-46
2023/01/31 07:08:43;;;;;;;7.70;4.30;;;;;;;;;;5051383;28;20028;-49
2023/01/31 07:11:09;;;;;;;7.25;4.85;;;;;;;;;;5051076;28;20673;-47
2023/01/31 07:13:35;;;;;;;8.07;4.55;;;;;;;;;;5051110;28;20037;-46
2023/01/31 07:16:01;;;;;;;8.07;4.85;;;;;;;;;;5050275;28;20035;-48
2023/01/31 07:18:27;;;;;;;6.25;4.22;;;;;;;;;;5050846;28;20388;-47
2023/01/31 07:20:53;;;;;;;9.38;4.38;;;;;;;;;;5051029;28;20049;-45
2023/01/31 07:23:19;;;;;;;5.70;3.47;;;;;;;;;;5051238;28;20029;-46
2023/01/31 07:25:45;;;;;;;7.47;4.05;;;;;;;;;;5051532;28;20045;-46
2023/01/31 07:28:11;;;;;;;7.18;4.13;;;;;;;;;;5051156;28;20436;-46
2023/01/31 07:30:38;;;;;;;6.97;4.18;;;;;;;;;;5050950;28;20064;-47
2023/01/31 07:33:05;;;;;;;5.55;3.53;;;;;;;;;;5050997;28;20056;-47
2023/01/31 07:35:31;;;;;;;5.20;3.40;;;;;;;;;;5051410;28;20033;-50
2023/01/31 07:37:57;;;;;;;4.45;3.22;;;;;;;;;;5051098;28;20029;-47
2023/01/31 07:40:23;;;;;;;5.88;3.60;;;;;;;;;;5052501;28;20051;-48
2023/01/31 07:42:49;;;;;;;5.50;3.53;;;;;;;;;;5052382;28;20059;-47
2023/01/31 07:45:15;;;;;;;5.88;3.65;;;;;;;;;;5050255;28;20028;-46
2023/01/31 07:47:41;;;;;;;6.10;3.55;;;;;;;;;;5049431;28;20108;-48
2023/01/31 07:50:08;;;;;;;6.65;3.85;;;;;;;;;;5051005;28;20083;-48
2023/01/31 07:52:34;;;;;;;6.10;3.50;;;;;;;;;;5050552;28;20091;-45
2023/01/31 07:55:00;;;;;;;5.40;3.75;;;;;;;;;;5050795;28;20488;-46
2023/01/31 07:57:26;;;;;;;6.03;3.60;;;;;;;;;;5050475;28;20063;-47
2023/01/31 07:59:52;;;;;;;7.00;3.78;;;;;;;;;;5050789;28;20037;-48
2023/01/31 08:05:03;;;;;;;5.13;3.13;;;;;;;;;;5050932;28;20404;-48
2023/01/31 08:07:29;;;;;;;6.28;3.67;;;;;;;;;;5050320;28;20029;-45
2023/01/31 08:09:55;;;;;;;6.45;3.80;;;;;;;;;;5048909;28;20100;-45
2023/01/31 08:12:21;;;;;;;6.63;4.07;;;;;;;;;;5047496;28;20045;-46
2023/01/31 08:14:47;;;;;;;6.47;4.03;;;;;;;;;;5047529;28;20531;-46
2023/01/31 08:17:13;;;;;;;5.80;3.50;;;;;;;;;;5047398;28;20060;-46
2023/01/31 08:19:39;;;;;;;5.80;3.70;;;;;;;;;;5048045;28;20037;-47
2023/01/31 08:22:05;;;;;;;6.20;3.35;;;;;;;;;;5047470;28;20526;-46
2023/01/31 08:24:32;;;;;;;5.95;3.60;;;;;;;;;;5048911;28;20025;-45
2023/01/31 08:26:58;;;;;;;7.18;4.03;;;;;;;;;;5049066;28;20035;-47
2023/01/31 08:29:25;;;;;;;5.68;3.70;;;;;;;;;;5047886;28;20043;-47
2023/01/31 08:31:51;;;;;;;5.82;3.55;;;;;;;;;;5049269;28;20090;-47
2023/01/31 08:34:17;;;;;;;5.50;3.58;;;;;;;;;;5048266;28;20096;-47
2023/01/31 08:36:43;;;;;;;7.10;3.97;;;;;;;;;;5049016;28;20029;-45
2023/01/31 08:39:10;;;;;;;5.32;3.25;;;;;;;;;;5049244;28;20029;-48
2023/01/31 08:41:37;;;;;;;6.53;3.65;;;;;;;;;;5049050;28;20064;-46
2023/01/31 08:44:04;;;;;;;4.63;2.83;;;;;;;;;;5048589;28;20028;-48
2023/01/31 08:46:31;;;;;;;6.13;3.70;;;;;;;;;;5049695;28;20029;-50
2023/01/31 08:48:57;;;;;;;6.13;3.80;;;;;;;;;;5048428;28;20033;-46
2023/01/31 08:51:23;;;;;;;6.90;3.60;;;;;;;;;;5048538;28;20037;-48
2023/01/31 08:53:50;;;;;;;5.88;3.60;;;;;;;;;;5047699;28;20338;-46
2023/01/31 08:56:17;;;;;;;6.03;3.75;;;;;;;;;;5047581;28;20037;-47
2023/01/31 08:58:43;;;;;;;5.60;3.35;;;;;;;;;;5047321;28;20510;-46
2023/01/31 09:01:19;;;;;;;5.63;3.50;;;;;;;;;;5047459;28;20029;-45
2023/01/31 09:03:45;;;;;;;5.88;3.25;;;;;;;;;;5029738;28;20025;-48
2023/01/31 09:06:13;;;;;;;6.38;3.40;;;;;;;;;;5047465;28;20025;-46
2023/01/31 09:08:41;;;;;;;5.00;3.30;;;;;;;;;;5047111;28;20113;-47
2023/01/31 09:11:07;;;;;;;5.47;3.70;;;;;;;;;;5047232;28;20438;-47
2023/01/31 09:13:34;;;;;;;7.70;3.70;;;;;;;;;;5042354;28;20026;-46
2023/01/31 09:16:01;;;;;;;5.32;3.53;;;;;;;;;;5027300;28;20037;-46
2023/01/31 09:18:27;;;;;;;5.22;3.20;;;;;;;;;;5026178;28;20025;-50
2023/01/31 09:20:53;;;;;;;4.82;3.72;;;;;;;;;;5025326;28;20021;-46
2023/01/31 09:23:20;;;;;;;5.05;3.47;;;;;;;;;;5027157;28;20072;-47
2023/01/31 09:25:53;;;;;;;5.28;3.55;;;;;;;;;;5027141;28;20033;-48
2023/01/31 09:28:19;;;;;;;4.93;3.35;;;;;;;;;;5024859;28;20033;-46
2023/01/31 09:30:45;;;;;;;4.97;3.25;;;;;;;;;;5027185;28;20040;-47
2023/01/31 09:33:11;;;;;;;5.40;3.50;;;;;;;;;;5027080;28;20025;-48
2023/01/31 09:35:37;;;;;;;6.40;4.03;;;;;;;;;;5026972;28;20559;-48
2023/01/31 09:38:03;;;;;;;5.90;3.72;;;;;;;;;;5027428;28;20026;-47
2023/01/31 09:40:30;;;;;;;6.10;3.58;;;;;;;;;;5027246;28;20071;-48
2023/01/31 09:43:00;;;;;;;5.85;3.53;;;;;;;;;;5026803;28;20030;-45
2023/01/31 09:45:29;;;;;;;5.38;3.53;;;;;;;;;;5027031;28;20098;-46
2023/01/31 09:47:57;;;;;;;6.28;4.05;;;;;;;;;;5026638;28;20095;-47
2023/01/31 09:50:29;;;;;;;6.13;3.30;;;;;;;;;;5024746;28;20029;-49
2023/01/31 09:52:55;;;;;;;6.03;3.30;;;;;;;;;;5026661;28;20404;-49
2023/01/31 09:55:29;;;;;;;6.00;3.45;;;;;;;;;;5026696;28;20361;-46
2023/01/31 09:57:56;;;;;;;5.22;3.58;;;;;;;;;;5026498;28;20017;-49
2023/01/31 10:00:26;;;;;;;6.47;4.05;;;;;;;;;;5026687;28;20397;-46
2023/01/31 10:02:55;;;;;;;6.00;4.03;;;;;;;;;;5026652;28;20025;-48
2023/01/31 10:05:33;;;;;;;5.35;3.50;;;;;;;;;;5025347;28;20465;-46
2023/01/31 10:08:06;;;;;;;5.93;3.78;;;;;;;;;;5027002;28;20076;-47
2023/01/31 10:10:46;;;;;;;6.22;4.10;;;;;;;;;;5025078;28;20030;-49
2023/01/31 10:13:16;;;;;;;6.40;3.85;;;;;;;;;;5027785;28;20044;-49
2023/01/31 10:15:46;;;;;;;4.68;3.10;;;;;;;;;;5045931;28;20037;-49
2023/01/31 10:18:14;;;;;;;5.15;3.58;;;;;;;;;;5044946;28;20037;-49
2023/01/31 10:20:48;;;;;;;4.63;3.13;;;;;;;;;;5044431;28;20017;-47
2023/01/31 10:23:34;;;;;;;5.82;3.10;;;;;;;;;;5045852;28;20036;-45
2023/01/31 10:26:01;;;;;;;3.80;2.50;;;;;;;;;;5005520;28;20120;-47
2023/01/31 10:28:28;;;;;;;4.43;2.83;;;;;;;;;;5044938;28;20499;-46
2023/01/31 10:30:57;;;;;;;5.00;3.15;;;;;;;;;;5046146;28;20496;-48
2023/01/31 10:33:29;;;;;;;4.38;2.92;;;;;;;;;;5045906;28;20491;-50
2023/01/31 10:35:56;;;;;;;4.25;3.00;;;;;;;;;;5046039;28;20496;-47
2023/01/31 10:38:27;;;;;;;4.68;2.90;;;;;;;;;;5046816;28;20033;-46
2023/01/31 10:40:58;;;;;;;5.95;3.30;;;;;;;;;;5048764;28;20049;-49
2023/01/31 10:43:38;;;;;;;5.43;3.50;;;;;;;;;;5050046;28;20448;-46
2023/01/31 10:46:14;;;;;;;3.75;2.80;;;;;;;;;;5049328;28;20558;-46
2023/01/31 10:48:43;;;;;;;2.67;2.10;;;;;;;;;;5049832;28;20483;-47
2023/01/31 10:51:09;;;;;;;3.13;2.17;;;;;;;;;;5049741;28;20059;-46
2023/01/31 10:53:35;;;;;;;4.00;2.28;;;;;;;;;;5051071;28;20033;-46
2023/01/31 10:56:01;;;;;;;2.78;2.38;;;;;;;;;;5050213;28;20074;-45
2023/01/31 10:58:27;;;;;;;2.85;2.10;;;;;;;;;;5049783;28;20033;-45
2023/01/31 11:00:53;;;;;;;2.35;1.80;;;;;;;;;;5049563;28;20362;-46
2023/01/31 11:03:21;;;;;;;2.72;1.95;;;;;;;;;;5049266;28;20029;-49
2023/01/31 11:05:54;;;;;;;2.30;1.85;;;;;;;;;;5049094;28;20021;-46
2023/01/31 11:08:28;;;;;;;2.28;1.75;;;;;;;;;;5049912;28;20028;-46
2023/01/31 11:10:56;;;;;;;2.67;1.83;;;;;;;;;;5049601;28;20029;-49
2023/01/31 11:13:22;;;;;;;2.97;2.15;;;;;;;;;;5050789;28;20033;-46
2023/01/31 11:15:50;;;;;;;2.95;2.05;;;;;;;;;;5068421;28;20036;-48
2023/01/31 11:18:25;;;;;;;2.20;1.67;;;;;;;;;;5050142;28;20506;-47
2023/01/31 11:20:51;;;;;;;2.28;1.73;;;;;;;;;;5049834;28;20100;-47
2023/01/31 11:23:23;;;;;;;3.10;1.90;;;;;;;;;;5048125;28;20029;-48
2023/01/31 11:25:50;;;;;;;3.92;1.88;;;;;;;;;;5049116;28;20500;-48
2023/01/31 11:28:20;;;;;;;2.28;1.60;;;;;;;;;;5049991;28;20036;-45
2023/01/31 11:30:48;;;;;;;2.50;1.38;;;;;;;;;;5049413;28;20036;-48
2023/01/31 11:33:33;;;;;;;1.95;1.50;;;;;;;;;;5049701;28;20025;-49
2023/01/31 11:35:59;;;;;;;2.13;1.45;;;;;;;;;;5048838;28;20029;-47
2023/01/31 11:38:26;;;;;;;1.73;1.40;;;;;;;;;;5047832;28;20029;-49
2023/01/31 11:40:52;;;;;;;2.47;1.77;;;;;;;;;;5049140;28;20720;-46
2023/01/31 11:43:18;;;;;;;3.10;1.70;;;;;;;;;;5048984;28;20507;-47
2023/01/31 11:45:45;;;;;;;2.42;1.77;;;;;;;;;;5049713;28;20025;-47
2023/01/31 11:48:12;;;;;;;2.15;1.70;;;;;;;;;;5046237;28;20021;-46
2023/01/31 11:50:42;;;;;;;2.58;1.60;;;;;;;;;;5029670;28;20544;-50
2023/01/31 11:53:14;;;;;;;2.05;1.40;;;;;;;;;;5048971;28;20029;-46
2023/01/31 11:55:40;;;;;;;2.67;1.70;;;;;;;;;;5048176;28;20028;-50
2023/01/31 11:58:17;;;;;;;1.45;1.23;;;;;;;;;;5048222;28;20021;-47
2023/01/31 12:00:59;;;;;;;2.33;1.42;;;;;;;;;;5030622;28;20033;-46
2023/01/31 12:03:25;;;;;;;2.03;1.60;;;;;;;;;;5035271;28;20036;-46
2023/01/31 12:05:59;;;;;;;1.55;1.45;;;;;;;;;;5050166;28;20431;-47
2023/01/31 12:08:27;;;;;;;2.17;1.50;;;;;;;;;;5048750;28;20107;-49
2023/01/31 12:10:54;;;;;;;2.22;1.45;;;;;;;;;;5049787;28;20535;-47
2023/01/31 12:13:20;;;;;;;3.10;1.85;;;;;;;;;;5046386;28;20025;-47
2023/01/31 12:15:55;;;;;;;1.65;1.30;;;;;;;;;;5028200;28;20041;-49
2023/01/31 12:18:28;;;;;;;2.40;1.50;;;;;;;;;;5029871;28;20037;-49
2023/01/31 12:21:02;;;;;;;1.65;1.35;;;;;;;;;;5029867;28;20022;-48
2023/01/31 12:23:40;;;;;;;2.22;1.80;;;;;;;;;;5030468;28;20455;-47
2023/01/31 12:26:24;;;;;;;2.25;1.50;;;;;;;;;;5029610;28;20028;-47
2023/01/31 12:28:50;;;;;;;;;;;;;;;;;;5029228;28;20038;-47
2023/01/31 12:31:22;;;;;;;2.90;1.58;;;;;;;;;;5029150;28;20002;-46
2023/01/31 12:33:48;;;;;;;1.67;1.38;;;;;;;;;;5029390;28;20083;-47
2023/01/31 12:36:21;;;;;;;2.22;1.30;;;;;;;;;;5028373;28;20088;-46
2023/01/31 12:39:14;;;;;;;2.25;1.48;;;;;;;;;;5022950;28;20087;-46
2023/01/31 12:41:56;;;;;;;2.22;1.10;;;;;;;;;;5025857;28;20056;-48
2023/01/31 12:44:39;;;;;;;1.50;1.20;;;;;;;;;;5027945;28;20033;-47
2023/01/31 12:47:28;;;;;;;1.83;1.35;;;;;;;;;;5028049;28;20071;-46
2023/01/31 12:49:54;;;;;;;1.27;1.05;;;;;;;;;;4999441;28;20516;-45
2023/01/31 12:52:26;;;;;;;1.55;1.10;;;;;;;;;;5027543;28;20057;-46
2023/01/31 12:55:01;;;;;;;1.35;1.10;;;;;;;;;;5027390;28;20033;-47
2023/01/31 12:57:31;;;;;;;1.17;0.80;;;;;;;;;;5026435;28;20026;-44
2023/01/31 12:59:57;;;;;;;1.73;1.40;;;;;;;;;;5025030;28;20037;-46
2023/01/31 13:02:32;;;;;;;2.10;1.50;;;;;;;;;;5026923;28;20037;-46
2023/01/31 13:05:04;;;;;;;2.90;1.70;;;;;;;;;;5026374;28;20032;-45
2023/01/31 13:07:35;;;;;;;2.25;1.40;;;;;;;;;;5027050;28;20018;-45
2023/01/31 13:10:03;;;;;;;2.00;1.30;;;;;;;;;;5026911;28;20044;-45
2023/01/31 13:12:33;;;;;;;1.77;1.25;;;;;;;;;;5026540;28;20512;-46
2023/01/31 13:15:05;;;;;;;2.15;1.42;;;;;;;;;;5042328;28;20033;-45
2023/01/31 13:17:31;;;;;;;3.13;1.67;;;;;;;;;;5050461;28;20492;-45
2023/01/31 13:19:59;;;;;;;1.60;1.40;;;;;;;;;;5047817;28;20067;-48
2023/01/31 13:22:36;;;;;;;2.90;1.33;;;;;;;;;;5047104;28;20024;-46
2023/01/31 13:25:21;;;;;;;2.63;1.83;;;;;;;;;;5047050;28;20052;-46
2023/01/31 13:27:56;;;;;;;2.38;1.60;;;;;;;;;;5043120;28;20017;-48
2023/01/31 13:30:38;;;;;;;2.33;1.67;;;;;;;;;;5047555;28;20040;-48
2023/01/31 13:33:14;;;;;;;1.35;1.25;;;;;;;;;;5047990;28;20067;-45
2023/01/31 13:35:41;;;;;;;1.75;1.25;;;;;;;;;;5048146;28;20512;-47
2023/01/31 13:38:11;;;;;;;1.45;1.35;;;;;;;;;;5048039;28;20025;-47
2023/01/31 13:40:57;;;;;;;1.85;1.60;;;;;;;;;;5047770;28;20443;-48
2023/01/31 13:43:23;;;;;;;2.83;1.70;;;;;;;;;;5047941;28;20036;-46
2023/01/31 13:45:53;;;;;;;1.98;1.58;;;;;;;;;;5048100;28;20120;-46
2023/01/31 13:48:22;;;;;;;2.55;1.60;;;;;;;;;;5047782;28;20032;-46
2023/01/31 13:50:51;;;;;;;1.73;1.45;;;;;;;;;;5044933;28;20033;-45
2023/01/31 13:53:23;;;;;;;1.88;1.50;;;;;;;;;;5043691;28;20123;-46
2023/01/31 13:55:50;;;;;;;2.17;1.50;;;;;;;;;;5046736;28;20033;-45
2023/01/31 13:58:19;;;;;;;1.60;1.48;;;;;;;;;;5047273;28;20033;-46
2023/01/31 14:00:50;;;;;;;1.38;1.23;;;;;;;;;;5046507;28;20066;-49
2023/01/31 14:03:20;;;;;;;1.33;1.17;;;;;;;;;;5047715;28;20021;-46
2023/01/31 14:05:49;;;;;;;1.50;1.33;;;;;;;;;;5047544;28;20025;-46
2023/01/31 14:08:44;;;;;;;2.50;1.40;;;;;;;;;;5047121;28;20025;-47
2023/01/31 14:11:13;;;;;;;1.88;1.33;;;;;;;;;;4987763;28;20050;-48
2023/01/31 14:13:41;;;;;;;1.73;1.50;;;;;;;;;;5049527;28;20502;-47
2023/01/31 14:16:28;;;;;;;2.10;1.45;;;;;;;;;;5067572;28;20066;-48
2023/01/31 14:18:54;;;;;;;1.40;1.20;;;;;;;;;;5053432;28;20049;-47
2023/01/31 14:21:29;;;;;;;1.50;1.25;;;;;;;;;;5055819;28;20048;-47
2023/01/31 14:23:56;;;;;;;3.50;1.30;;;;;;;;;;5042428;28;20092;-49
2023/01/31 14:26:32;;;;;;;2.35;1.80;;;;;;;;;;5046179;28;20033;-47
2023/01/31 14:28:58;;;;;;;1.42;1.20;;;;;;;;;;5046827;28;20033;-48
2023/01/31 14:31:26;;;;;;;1.55;1.35;;;;;;;;;;5045725;28;20297;-47
2023/01/31 14:33:56;;;;;;;1.85;1.30;;;;;;;;;;5044478;28;20033;-45
2023/01/31 14:36:35;;;;;;;1.30;1.15;;;;;;;;;;5046878;28;20438;-47
2023/01/31 14:39:07;;;;;;;2.17;1.40;;;;;;;;;;5045567;28;20029;-45
2023/01/31 14:41:41;;;;;;;1.70;1.30;;;;;;;;;;5046164;28;20033;-49
2023/01/31 14:44:19;;;;;;;1.88;1.33;;;;;;;;;;5045519;28;20056;-48
2023/01/31 14:46:51;;;;;;;2.33;1.35;;;;;;;;;;5045961;28;20033;-48
2023/01/31 14:49:26;;;;;;;2.47;1.20;;;;;;;;;;5045960;28;20025;-45
2023/01/31 14:52:11;;;;;;;2.45;1.40;;;;;;;;;;5033480;28;20025;-48
2023/01/31 14:54:46;;;;;;;2.13;1.50;;;;;;;;;;5043603;28;20047;-49
2023/01/31 14:57:12;;;;;;;1.48;1.27;;;;;;;;;;5044980;28;20423;-46
2023/01/31 14:59:59;;;;;;;1.73;1.20;;;;;;;;;;5044953;28;20083;-48
2023/01/31 15:02:25;;;;;;;2.03;1.27;;;;;;;;;;5034240;28;20037;-49
2023/01/31 15:05:01;;;;;;;1.25;1.15;;;;;;;;;;5045665;28;20558;-46
2023/01/31 15:07:28;;;;;;;1.65;1.48;;;;;;;;;;5043783;28;20025;-47
2023/01/31 15:09:54;;;;;;;2.30;1.60;;;;;;;;;;5045836;28;20094;-46
2023/01/31 15:12:39;;;;;;;2.25;1.55;;;;;;;;;;5046578;28;20064;-46
2023/01/31 15:15:17;;;;;;;2.05;1.50;;;;;;;;;;5045061;28;20025;-47
2023/01/31 15:17:45;;;;;;;2.20;1.60;;;;;;;;;;5046705;28;20068;-45
2023/01/31 15:20:14;;;;;;;2.67;1.30;;;;;;;;;;5046670;28;20025;-48
2023/01/31 15:22:42;;;;;;;1.80;1.38;;;;;;;;;;5045439;28;20029;-45
2023/01/31 15:25:18;;;;;;;1.45;1.30;;;;;;;;;;5047279;28;20039;-47
2023/01/31 15:27:46;;;;;;;1.33;1.15;;;;;;;;;;5050691;28;20033;-48
2023/01/31 15:30:22;;;;;;;1.67;1.23;;;;;;;;;;5049073;28;20074;-49
2023/01/31 15:32:55;;;;;;;2.53;1.55;;;;;;;;;;5049166;28;20420;-46
2023/01/31 15:35:31;;;;;;;2.22;1.73;;;;;;;;;;5050317;28;20100;-45
2023/01/31 15:38:15;;;;;;;3.00;1.75;;;;;;;;;;5050046;28;20459;-46
2023/01/31 15:40:42;;;;;;;;;;;;;;;;;;5049714;28;20043;-47
2023/01/31 15:43:21;;;;;;;2.95;1.40;;;;;;;;;;5049196;28;20350;-48
2023/01/31 15:45:50;;;;;;;2.47;1.55;;;;;;;;;;5049068;28;20028;-48
2023/01/31 15:48:17;;;;;;;2.00;1.55;;;;;;;;;;5049014;28;20036;-45
2023/01/31 15:50:56;;;;;;;3.30;1.50;;;;;;;;;;5048739;28;20033;-46
2023/01/31 15:53:24;;;;;;;2.60;1.58;;;;;;;;;;5048798;28;20420;-47
2023/01/31 15:55:52;;;;;;;1.88;1.40;;;;;;;;;;5047603;28;20048;-47
2023/01/31 15:58:20;;;;;;;2.75;1.75;;;;;;;;;;5048906;28;20032;-46
2023/01/31 16:00:54;;;;;;;1.92;1.58;;;;;;;;;;5047816;28;20100;-46
2023/01/31 16:03:23;;;;;;;2.80;1.83;;;;;;;;;;5045817;28;20031;-46
2023/01/31 16:05:50;;;;;;;2.85;1.80;;;;;;;;;;5048635;28;20103;-46
2023/01/31 16:08:32;;;;;;;2.30;1.70;;;;;;;;;;5048579;28;20029;-46
2023/01/31 16:10:59;;;;;;;2.67;1.85;;;;;;;;;;5030538;28;20024;-46
2023/01/31 16:13:25;;;;;;;3.67;2.33;;;;;;;;;;5048416;28;20037;-46
2023/01/31 16:15:53;;;;;;;4.00;2.63;;;;;;;;;;5057778;28;21100;-48
2023/01/31 16:18:19;;;;;;;5.53;2.97;;;;;;;;;;5068523;28;20056;-46
2023/01/31 16:20:47;;;;;;;2.88;2.22;;;;;;;;;;5049717;28;20025;-45
2023/01/31 16:23:20;;;;;;;4.30;2.35;;;;;;;;;;5048168;28;20116;-46
2023/01/31 16:25:50;;;;;;;4.63;2.53;;;;;;;;;;5048310;28;20021;-47
2023/01/31 16:28:16;;;;;;;3.80;2.38;;;;;;;;;;5048257;28;20029;-47
2023/01/31 16:30:42;;;;;;;2.85;2.20;;;;;;;;;;5047146;28;20017;-48
2023/01/31 16:33:17;;;;;;;3.88;2.22;;;;;;;;;;5048438;28;20049;-46
2023/01/31 16:35:43;;;;;;;5.28;3.22;;;;;;;;;;5047824;28;20024;-46
2023/01/31 16:38:23;;;;;;;5.30;3.50;;;;;;;;;;5059437;28;20083;-45
2023/01/31 16:40:52;;;;;;;6.18;3.08;;;;;;;;;;5050667;28;20376;-46
2023/01/31 16:43:26;;;;;;;3.63;2.67;;;;;;;;;;5048026;28;20013;-46
2023/01/31 16:45:57;;;;;;;4.43;3.08;;;;;;;;;;5049761;28;20025;-46
2023/01/31 16:48:25;;;;;;;4.88;2.90;;;;;;;;;;5047991;28;20029;-46
2023/01/31 16:50:52;;;;;;;5.72;3.28;;;;;;;;;;5047601;28;20056;-46
2023/01/31 16:53:21;;;;;;;5.10;2.92;;;;;;;;;;5048005;28;20021;-46
2023/01/31 16:56:07;;;;;;;4.68;2.67;;;;;;;;;;5048791;28;20017;-47
2023/01/31 16:58:53;;;;;;;5.85;3.22;;;;;;;;;;5048686;28;20044;-49
2023/01/31 17:01:22;;;;;;;5.25;2.95;;;;;;;;;;5007235;28;20036;-46
2023/01/31 17:04:00;;;;;;;7.43;3.08;;;;;;;;;;5047747;28;20037;-49
2023/01/31 17:06:26;;;;;;;4.45;2.85;;;;;;;;;;5064301;28;20023;-46
2023/01/31 17:08:52;;;;;;;4.00;2.58;;;;;;;;;;5065141;28;20028;-46
2023/01/31 17:11:18;;;;;;;3.75;2.40;;;;;;;;;;5046563;28;20063;-48
2023/01/31 17:13:44;;;;;;;4.95;2.80;;;;;;;;;;5047655;28;20060;-46
2023/01/31 17:16:20;;;;;;;3.47;2.65;;;;;;;;;;5041475;28;20029;-46
2023/01/31 17:18:47;;;;;;;5.88;2.58;;;;;;;;;;5027373;28;20030;-46
2023/01/31 17:21:13;;;;;;;3.35;2.28;;;;;;;;;;5027839;28;20087;-46
2023/01/31 17:23:41;;;;;;;5.22;2.70;;;;;;;;;;5027170;28;20060;-45
2023/01/31 17:26:13;;;;;;;4.15;2.60;;;;;;;;;;5027737;28;20028;-46
2023/01/31 17:28:39;;;;;;;2.60;2.15;;;;;;;;;;5031849;28;20025;-47
2023/01/31 17:31:05;;;;;;;3.20;2.03;;;;;;;;;;5027327;28;20036;-49
2023/01/31 17:33:31;;;;;;;2.45;1.85;;;;;;;;;;5027147;28;20065;-44
2023/01/31 17:35:58;;;;;;;3.22;2.22;;;;;;;;;;5026720;28;20725;-44
2023/01/31 17:38:26;;;;;;;2.92;2.13;;;;;;;;;;5026007;28;20033;-46
2023/01/31 17:40:52;;;;;;;4.00;2.40;;;;;;;;;;5015448;28;20546;-47
2023/01/31 17:43:20;;;;;;;4.95;3.17;;;;;;;;;;5020129;28;20033;-48
2023/01/31 17:45:46;;;;;;;8.30;4.57;;;;;;;;;;5025699;28;20057;-46
2023/01/31 17:48:12;;;;;;;19.98;10.07;;;;;;;;;;5028738;28;20035;-46
2023/01/31 17:50:38;;;;;;;18.88;9.52;;;;;;;;;;5046073;28;20471;-45
2023/01/31 17:53:04;;;;;;;17.75;8.48;;;;;;;;;;5035271;28;20560;-49
2023/01/31 17:55:30;;;;;;;14.70;7.15;;;;;;;;;;5025257;28;20033;-47
2023/01/31 17:57:57;;;;;;;11.43;5.97;;;;;;;;;;5025074;28;20080;-46
2023/01/31 18:00:23;;;;;;;10.10;5.82;;;;;;;;;;5025241;28;20480;-46
2023/01/31 18:02:49;;;;;;;9.02;5.35;;;;;;;;;;5024985;28;20361;-47
2023/01/31 18:05:15;;;;;;;6.80;4.18;;;;;;;;;;5025841;28;20040;-45
2023/01/31 18:07:42;;;;;;;7.65;4.55;;;;;;;;;;5023542;28;20025;-48
2023/01/31 18:10:08;;;;;;;8.00;4.57;;;;;;;;;;5025425;28;20026;-46
2023/01/31 18:12:35;;;;;;;5.55;3.67;;;;;;;;;;5025797;28;20128;-47
2023/01/31 18:15:01;;;;;;;5.25;3.45;;;;;;;;;;5042086;28;20037;-45
2023/01/31 18:17:27;;;;;;;5.20;3.35;;;;;;;;;;5045569;28;20095;-48
2023/01/31 18:19:54;;;;;;;6.53;3.72;;;;;;;;;;5045764;28;20554;-48
2023/01/31 18:22:20;;;;;;;5.68;3.33;;;;;;;;;;5045019;28;20434;-49
2023/01/31 18:24:47;;;;;;;5.05;3.28;;;;;;;;;;5044838;28;20673;-48
2023/01/31 18:27:13;;;;;;;4.85;3.28;;;;;;;;;;5047907;28;20222;-45
2023/01/31 18:29:39;;;;;;;6.63;3.60;;;;;;;;;;5043795;28;20029;-45
2023/01/31 18:32:08;;;;;;;5.95;3.45;;;;;;;;;;5042116;28;20041;-48
2023/01/31 18:34:34;;;;;;;4.22;2.90;;;;;;;;;;5051716;28;20092;-48
2023/01/31 18:37:01;;;;;;;3.92;2.72;;;;;;;;;;5043484;28;20077;-46
2023/01/31 18:39:27;;;;;;;3.40;2.15;;;;;;;;;;5043164;28;20063;-46
2023/01/31 18:41:53;;;;;;;3.50;2.50;;;;;;;;;;5042739;28;20519;-48
2023/01/31 18:44:19;;;;;;;3.83;2.30;;;;;;;;;;5043110;28;20070;-46
2023/01/31 18:46:45;;;;;;;3.53;2.40;;;;;;;;;;5043140;28;20031;-47
2023/01/31 18:49:11;;;;;;;3.28;2.33;;;;;;;;;;5042154;28;20047;-46
2023/01/31 18:51:38;;;;;;;4.15;2.60;;;;;;;;;;5042585;28;20025;-46
2023/01/31 18:54:05;;;;;;;4.80;2.88;;;;;;;;;;5043737;28;20083;-47
2023/01/31 18:56:31;;;;;;;5.55;3.40;;;;;;;;;;5032708;28;20047;-46
2023/01/31 18:58:57;;;;;;;5.55;3.40;;;;;;;;;;5049365;28;20442;-46
2023/01/31 19:01:25;;;;;;;4.90;2.90;;;;;;;;;;5050369;28;20268;-47
2023/01/31 19:03:52;;;;;;;7.22;4.20;;;;;;;;;;5047275;28;20481;-46
2023/01/31 19:06:22;;;;;;;6.03;3.53;;;;;;;;;;5045218;28;20033;-46
2023/01/31 19:08:52;;;;;;;4.38;2.85;;;;;;;;;;5044511;28;20565;-46
2023/01/31 19:11:19;;;;;;;4.20;2.75;;;;;;;;;;5045262;28;20041;-46
2023/01/31 19:13:45;;;;;;;4.95;2.97;;;;;;;;;;5047498;28;20044;-49
2023/01/31 19:16:19;;;;;;;3.67;2.75;;;;;;;;;;5047493;28;20037;-45
2023/01/31 19:18:45;;;;;;;5.15;2.95;;;;;;;;;;5044843;28;20037;-46
2023/01/31 19:21:18;;;;;;;4.53;2.75;;;;;;;;;;5048062;28;20427;-46
2023/01/31 19:23:45;;;;;;;5.30;3.15;;;;;;;;;;5047898;28;20032;-47
2023/01/31 19:26:11;;;;;;;4.25;2.70;;;;;;;;;;5064106;28;20083;-46
2023/01/31 19:28:38;;;;;;;5.10;3.13;;;;;;;;;;5048782;28;20025;-46
2023/01/31 19:31:05;;;;;;;5.40;3.40;;;;;;;;;;5048653;28;20040;-49
2023/01/31 19:33:31;;;;;;;3.42;2.80;;;;;;;;;;5048420;28;20717;-45
2023/01/31 19:35:57;;;;;;;5.95;3.60;;;;;;;;;;5049198;28;20119;-47
2023/01/31 19:38:23;;;;;;;3.85;2.90;;;;;;;;;;5030645;28;20056;-45
2023/01/31 19:40:50;;;;;;;4.13;2.97;;;;;;;;;;5048446;28;20499;-47
2023/01/31 19:43:17;;;;;;;5.32;3.53;;;;;;;;;;5051688;28;20021;-46
2023/01/31 19:45:43;;;;;;;4.15;3.33;;;;;;;;;;5048871;28;20075;-46
2023/01/31 19:48:09;;;;;;;5.60;2.78;;;;;;;;;;5049294;28;20035;-49
2023/01/31 19:50:35;;;;;;;5.05;2.55;;;;;;;;;;5048321;28;20086;-46
2023/01/31 19:53:02;;;;;;;4.10;3.03;;;;;;;;;;5053200;28;20462;-45
2023/01/31 19:55:28;;;;;;;4.05;2.60;;;;;;;;;;5068703;28;20578;-47
2023/01/31 19:57:54;;;;;;;6.35;3.10;;;;;;;;;;5057611;28;20543;-45
2023/01/31 20:00:21;;;;;;;4.65;3.15;;;;;;;;;;5048137;28;20029;-45
2023/01/31 20:02:47;;;;;;;4.55;3.40;;;;;;;;;;5047822;28;20017;-47